createdAt,value
2019-05-30T00:00:05.873Z,68.80
2019-05-30T00:02:21.826Z,69.00
2019-05-30T00:04:50.533Z,68.30
2019-05-30T00:07:19.253Z,69.50
2019-05-30T00:09:48.060Z,68.90
2019-05-30T00:12:16.806Z,70.00
2019-05-30T00:14:45.726Z,70.20
2019-05-30T00:17:14.473Z,70.10
2019-05-30T00:19:43.558Z,69.80
2019-05-30T00:22:12.368Z,69.70
2019-05-30T00:24:42.006Z,70.50
2019-05-30T00:27:11.170Z,69.70
2019-05-30T00:29:39.937Z,70.60
2019-05-30T00:32:08.653Z,70.90
2019-05-30T00:34:37.482Z,71.60
2019-05-30T00:37:06.840Z,70.60
2019-05-30T00:39:35.670Z,70.20
2019-05-30T00:42:04.638Z,69.50
2019-05-30T00:44:33.540Z,69.90
2019-05-30T00:47:02.566Z,70.30
2019-05-30T00:49:31.325Z,69.40
2019-05-30T00:52:00.551Z,69.70
2019-05-30T00:54:29.440Z,70.50
2019-05-30T00:56:58.640Z,70.80
2019-05-30T00:59:27.594Z,70.60
2019-05-30T01:01:56.580Z,70.70
2019-05-30T01:04:25.598Z,72.50
2019-05-30T01:06:54.317Z,72.10
2019-05-30T01:09:23.198Z,72.40
2019-05-30T01:11:51.958Z,71.80
2019-05-30T01:14:20.744Z,72.20
2019-05-30T01:16:49.465Z,72.60
2019-05-30T01:19:18.188Z,72.90
2019-05-30T01:21:47.247Z,72.80
2019-05-30T01:24:16.501Z,72.40
2019-05-30T01:26:45.263Z,72.10
2019-05-30T01:29:14.081Z,71.20
2019-05-30T01:31:42.784Z,72.30
2019-05-30T01:34:11.679Z,71.80
2019-05-30T01:36:40.503Z,71.10
2019-05-30T01:39:09.436Z,71.20
2019-05-30T01:41:39.199Z,72.00
2019-05-30T01:44:08.325Z,72.50
2019-05-30T01:46:37.231Z,72.50
2019-05-30T01:49:06.798Z,71.90
2019-05-30T01:51:35.854Z,72.10
2019-05-30T01:54:04.705Z,72.70
2019-05-30T01:56:33.513Z,72.10
2019-05-30T01:59:02.653Z,71.70
2019-05-30T02:01:31.676Z,71.00
2019-05-30T02:04:01.066Z,71.10
2019-05-30T02:06:30.325Z,71.50
2019-05-30T02:08:59.181Z,71.40
2019-05-30T02:11:28.284Z,71.50
2019-05-30T02:13:59.438Z,71.80
2019-05-30T02:16:28.782Z,72.80
2019-05-30T02:18:57.624Z,74.10
2019-05-30T02:21:26.678Z,72.70
2019-05-30T02:23:55.399Z,72.00
2019-05-30T02:26:24.455Z,72.30
2019-05-30T02:28:53.263Z,73.20
2019-05-30T02:31:38.651Z,73.40
2019-05-30T02:33:53.181Z,73.40
2019-05-30T02:36:21.925Z,73.30
2019-05-30T02:38:50.709Z,73.80
2019-05-30T02:41:19.475Z,73.20
2019-05-30T02:43:48.204Z,73.20
2019-05-30T02:46:17.244Z,72.40
2019-05-30T02:48:57.997Z,73.10
2019-05-30T02:51:16.643Z,72.40
2019-05-30T02:53:45.437Z,72.80
2019-05-30T02:56:14.769Z,72.30
2019-05-30T02:58:43.528Z,74.40
2019-05-30T03:01:14.598Z,73.60
2019-05-30T03:03:43.061Z,73.40
2019-05-30T03:06:13.908Z,72.90
2019-05-30T03:08:43.554Z,73.00
2019-05-30T03:11:15.226Z,73.50
2019-05-30T03:13:43.702Z,73.20
2019-05-30T03:16:13.666Z,72.90
2019-05-30T03:18:42.766Z,72.50
2019-05-30T03:21:13.462Z,74.60
2019-05-30T03:23:42.461Z,73.40
2019-05-30T03:26:13.705Z,73.00
2019-05-30T03:28:42.223Z,72.90
2019-05-30T03:31:23.017Z,73.70
2019-05-30T03:33:43.255Z,73.40
2019-05-30T03:36:24.191Z,73.80
2019-05-30T03:38:42.936Z,73.70
2019-05-30T03:41:12.182Z,74.00
2019-05-30T03:43:40.974Z,74.10
2019-05-30T03:46:16.503Z,73.20
2019-05-30T03:48:46.460Z,73.70
2019-05-30T03:51:17.047Z,73.50
2019-05-30T03:53:46.221Z,73.70
2019-05-30T03:56:19.218Z,74.50
2019-05-30T03:59:19.965Z,74.40
2019-05-30T04:02:00.160Z,75.20
2019-05-30T04:04:32.384Z,74.80
2019-05-30T04:07:06.937Z,73.90
2019-05-30T04:09:39.912Z,74.10
2019-05-30T04:12:25.118Z,73.50
2019-05-30T04:14:58.190Z,73.20
2019-05-30T04:17:30.338Z,74.00
2019-05-30T04:20:02.254Z,73.60
2019-05-30T04:22:31.254Z,74.10
2019-05-30T04:25:00.337Z,73.30
2019-05-30T04:27:29.407Z,73.20
2019-05-30T04:30:02.646Z,73.20
2019-05-30T04:32:31.731Z,72.60
2019-05-30T04:35:00.707Z,72.90
2019-05-30T04:37:29.495Z,72.20
2019-05-30T04:39:58.516Z,72.10
2019-05-30T04:42:28.200Z,72.00
2019-05-30T04:44:57.032Z,71.90
2019-05-30T04:47:27.916Z,71.60
2019-05-30T04:49:57.116Z,71.30
2019-05-30T04:52:28.689Z,71.10
2019-05-30T04:54:57.494Z,71.00
2019-05-30T04:57:27.266Z,70.70
2019-05-30T04:59:56.226Z,70.70
2019-05-30T05:02:29.444Z,70.50
2019-05-30T05:04:58.386Z,70.10
2019-05-30T05:07:28.013Z,70.10
2019-05-30T05:09:57.073Z,69.80
2019-05-30T05:12:26.201Z,69.60
2019-05-30T05:14:55.493Z,70.10
2019-05-30T05:17:31.679Z,69.10
2019-05-30T05:20:00.872Z,69.40
2019-05-30T05:22:31.729Z,69.80
2019-05-30T05:25:00.488Z,70.30
2019-05-30T05:27:29.204Z,69.60
2019-05-30T05:29:58.381Z,69.50
2019-05-30T05:32:27.464Z,69.60
2019-05-30T05:34:56.349Z,69.80
2019-05-30T05:37:25.564Z,70.10
2019-05-30T05:39:54.387Z,70.20
2019-05-30T05:42:28.266Z,71.00
2019-05-30T05:44:53.897Z,70.90
2019-05-30T05:47:22.830Z,71.10
2019-05-30T05:49:51.990Z,71.50
2019-05-30T05:52:20.781Z,70.10
2019-05-30T05:54:49.652Z,70.80
2019-05-30T05:57:18.885Z,70.50
2019-05-30T05:59:48.009Z,70.20
2019-05-30T06:02:17.620Z,69.90
2019-05-30T06:04:47.077Z,69.70
2019-05-30T06:07:16.137Z,70.20
2019-05-30T06:09:45.017Z,69.50
2019-05-30T06:12:13.805Z,71.00
2019-05-30T06:14:42.529Z,71.00
2019-05-30T06:17:11.620Z,70.30
2019-05-30T06:19:46.337Z,69.90
2019-05-30T06:22:11.787Z,70.50
2019-05-30T06:24:40.621Z,70.70
2019-05-30T06:27:09.756Z,70.20
2019-05-30T06:29:38.578Z,70.00
2019-05-30T06:32:07.495Z,69.70
2019-05-30T06:34:39.424Z,69.00
2019-05-30T06:37:06.667Z,68.90
2019-05-30T06:39:35.691Z,69.20
2019-05-30T06:42:04.595Z,69.00
2019-05-30T06:44:33.608Z,67.10
2019-05-30T06:47:02.662Z,67.20
2019-05-30T06:49:31.425Z,68.20
2019-05-30T06:52:00.407Z,68.70
2019-05-30T06:54:29.576Z,66.80
2019-05-30T06:56:58.582Z,67.40
2019-05-30T06:59:27.736Z,68.10
2019-05-30T07:01:56.519Z,68.00
2019-05-30T07:04:29.226Z,66.40
2019-05-30T07:06:58.449Z,66.10
2019-05-30T07:09:27.481Z,65.10
2019-05-30T07:11:56.247Z,65.70
2019-05-30T07:14:25.398Z,64.60
2019-05-30T07:16:54.184Z,65.50
2019-05-30T07:19:23.382Z,65.10
2019-05-30T07:21:52.516Z,65.70
2019-05-30T07:24:21.660Z,63.90
2019-05-30T07:26:50.455Z,64.50
2019-05-30T07:29:19.760Z,64.00
2019-05-30T07:31:48.801Z,60.70
2019-05-30T07:34:18.266Z,63.80
2019-05-30T07:36:47.051Z,63.00
2019-05-30T07:39:16.091Z,61.50
2019-05-30T07:41:45.248Z,61.40
2019-05-30T07:44:14.141Z,60.50
2019-05-30T07:46:42.992Z,60.30
2019-05-30T07:49:11.892Z,61.40
2019-05-30T07:51:40.670Z,59.80
2019-05-30T07:54:09.414Z,59.10
2019-05-30T07:56:38.566Z,59.00
2019-05-30T07:59:07.356Z,59.60
2019-05-30T08:01:39.647Z,59.00
2019-05-30T08:04:08.695Z,58.00
2019-05-30T08:06:37.889Z,58.40
2019-05-30T08:09:07.937Z,59.10
2019-05-30T08:11:36.800Z,59.10
2019-05-30T08:14:05.971Z,59.90
2019-05-30T08:16:35.482Z,59.80
2019-05-30T08:19:06.007Z,60.10
2019-05-30T08:21:36.194Z,60.30
2019-05-30T08:24:05.636Z,60.80
2019-05-30T08:26:34.413Z,59.40
2019-05-30T08:29:03.205Z,59.20
2019-05-30T08:31:32.511Z,59.80
2019-05-30T08:34:01.999Z,58.00
2019-05-30T08:36:30.896Z,59.30
2019-05-30T08:38:59.809Z,58.40
2019-05-30T08:41:29.139Z,59.10
2019-05-30T08:43:58.049Z,59.30
2019-05-30T08:46:26.780Z,58.80
2019-05-30T08:48:55.568Z,59.80
2019-05-30T08:51:24.292Z,59.00
2019-05-30T08:53:53.066Z,59.20
2019-05-30T08:56:21.858Z,58.90
2019-05-30T08:58:50.583Z,58.10
2019-05-30T09:01:20.373Z,58.20
2019-05-30T09:03:50.611Z,59.10
2019-05-30T09:06:19.408Z,57.80
2019-05-30T09:08:48.467Z,59.50
2019-05-30T09:11:17.263Z,56.90
2019-05-30T09:13:46.770Z,58.80
2019-05-30T09:16:15.595Z,58.60
2019-05-30T09:18:45.255Z,58.10
2019-05-30T09:21:14.496Z,57.50
2019-05-30T09:23:43.963Z,58.70
2019-05-30T09:26:13.023Z,59.10
2019-05-30T09:28:42.211Z,58.30
2019-05-30T09:31:11.195Z,58.30
2019-05-30T09:33:40.968Z,58.70
2019-05-30T09:36:13.959Z,56.80
2019-05-30T09:38:43.540Z,56.70
2019-05-30T09:41:12.516Z,56.30
2019-05-30T09:43:42.851Z,55.00
2019-05-30T09:46:11.691Z,55.70
2019-05-30T09:48:41.459Z,56.90
2019-05-30T09:51:11.059Z,55.20
2019-05-30T09:53:41.071Z,54.70
2019-05-30T09:56:10.746Z,54.60
2019-05-30T09:58:39.744Z,55.50
2019-05-30T10:01:08.641Z,54.10
2019-05-30T10:03:37.351Z,53.60
2019-05-30T10:06:06.317Z,54.30
2019-05-30T10:08:35.101Z,54.20
2019-05-30T10:11:04.085Z,51.40
2019-05-30T10:13:32.846Z,50.50
2019-05-30T10:16:01.559Z,52.50
2019-05-30T10:18:30.413Z,52.10
2019-05-30T10:20:59.502Z,50.60
2019-05-30T10:23:28.293Z,51.40
2019-05-30T10:25:57.609Z,52.00
2019-05-30T10:28:26.496Z,51.60
2019-05-30T10:30:58.920Z,50.60
2019-05-30T10:33:26.123Z,50.70
2019-05-30T10:35:54.954Z,51.00
2019-05-30T10:38:23.733Z,51.60
2019-05-30T10:40:52.503Z,51.00
2019-05-30T10:43:21.306Z,49.50
2019-05-30T10:45:51.293Z,48.20
2019-05-30T10:48:21.085Z,50.80
2019-05-30T10:50:50.524Z,50.40
2019-05-30T10:53:19.793Z,49.30
2019-05-30T10:55:49.846Z,48.40
2019-05-30T10:58:18.843Z,48.90
2019-05-30T11:00:51.840Z,50.10
2019-05-30T11:03:23.519Z,49.70
2019-05-30T11:06:20.516Z,49.40
2019-05-30T11:08:52.761Z,49.40
2019-05-30T11:11:21.567Z,51.70
2019-05-30T11:13:51.165Z,50.00
2019-05-30T11:16:20.435Z,49.20
2019-05-30T11:18:50.976Z,48.10
2019-05-30T11:21:19.660Z,48.90
2019-05-30T11:23:49.677Z,48.90
2019-05-30T11:26:19.327Z,47.90
2019-05-30T11:28:48.549Z,48.50
2019-05-30T11:31:17.365Z,48.70
2019-05-30T11:33:46.407Z,48.40
2019-05-30T11:36:18.262Z,49.50
2019-05-30T11:38:47.272Z,49.80
2019-05-30T11:41:16.180Z,47.50
2019-05-30T11:43:44.869Z,46.80
2019-05-30T11:46:14.070Z,47.40
2019-05-30T11:48:43.971Z,48.80
2019-05-30T11:51:12.813Z,47.90
2019-05-30T11:53:42.487Z,47.10
2019-05-30T11:56:11.334Z,47.90
2019-05-30T11:58:40.228Z,48.70
2019-05-30T12:01:09.284Z,47.00
2019-05-30T12:03:38.426Z,46.70
2019-05-30T12:06:07.547Z,48.40
2019-05-30T12:08:36.255Z,49.40
2019-05-30T12:11:05.025Z,47.20
2019-05-30T12:13:33.764Z,47.80
2019-05-30T12:16:02.781Z,48.30
2019-05-30T12:18:31.928Z,48.30
2019-05-30T12:21:01.883Z,46.30
2019-05-30T12:23:31.007Z,46.50
2019-05-30T12:26:00.323Z,46.90
2019-05-30T12:28:29.475Z,47.10
2019-05-30T12:31:03.239Z,46.10
2019-05-30T12:33:28.955Z,45.90
2019-05-30T12:35:58.533Z,47.00
2019-05-30T12:38:27.441Z,48.80
2019-05-30T12:40:56.751Z,49.00
2019-05-30T12:43:25.670Z,48.40
2019-05-30T12:45:54.925Z,48.40
2019-05-30T12:48:23.828Z,48.70
2019-05-30T12:50:53.191Z,47.60
2019-05-30T12:53:22.159Z,49.00
2019-05-30T12:55:51.452Z,49.60
2019-05-30T12:58:20.572Z,49.70
2019-05-30T13:00:49.829Z,47.40
2019-05-30T13:03:18.955Z,49.20
2019-05-30T13:05:47.712Z,49.10
2019-05-30T13:08:21.604Z,49.10
2019-05-30T13:10:47.200Z,50.50
2019-05-30T13:13:15.970Z,49.00
2019-05-30T13:15:44.712Z,51.70
2019-05-30T13:18:13.536Z,51.40
2019-05-30T13:20:42.570Z,50.40
2019-05-30T13:23:11.337Z,50.90
2019-05-30T13:25:40.151Z,50.70
2019-05-30T13:28:08.844Z,51.50
2019-05-30T13:30:37.764Z,51.90
2019-05-30T13:33:06.957Z,52.10
2019-05-30T13:35:35.903Z,53.00
2019-05-30T13:38:05.331Z,52.40
2019-05-30T13:40:34.443Z,52.50
2019-05-30T13:43:03.980Z,53.40
2019-05-30T13:45:36.628Z,55.50
2019-05-30T13:48:06.613Z,54.60
2019-05-30T13:50:35.491Z,55.70
2019-05-30T13:53:05.323Z,54.50
2019-05-30T13:55:34.156Z,57.10
2019-05-30T13:58:03.628Z,57.10
2019-05-30T14:00:32.667Z,56.20
2019-05-30T14:03:02.259Z,56.60
2019-05-30T14:05:31.208Z,57.40
2019-05-30T14:08:00.009Z,57.20
2019-05-30T14:10:28.880Z,57.10
2019-05-30T14:12:57.572Z,58.00
2019-05-30T14:15:27.176Z,57.50
2019-05-30T14:17:58.290Z,56.60
2019-05-30T14:20:27.446Z,57.00
2019-05-30T14:22:56.180Z,56.60
2019-05-30T14:25:24.903Z,56.40
2019-05-30T14:27:53.655Z,56.30
2019-05-30T14:30:23.239Z,56.10
2019-05-30T14:32:52.196Z,56.80
2019-05-30T14:35:21.265Z,55.90
2019-05-30T14:37:49.994Z,55.90
2019-05-30T14:40:19.677Z,55.50
2019-05-30T14:42:48.477Z,56.10
2019-05-30T14:45:18.873Z,56.00
2019-05-30T14:47:47.911Z,55.10
2019-05-30T14:50:17.420Z,55.10
2019-05-30T14:52:46.958Z,53.90
2019-05-30T14:55:17.335Z,54.40
2019-05-30T14:57:46.314Z,54.70
2019-05-30T15:00:17.794Z,54.10
2019-05-30T15:02:47.418Z,53.60
2019-05-30T15:05:16.979Z,54.10
2019-05-30T15:07:45.731Z,54.00
2019-05-30T15:10:15.228Z,53.20
2019-05-30T15:12:44.071Z,53.50
2019-05-30T15:15:16.632Z,54.50
2019-05-30T15:17:44.439Z,54.40
2019-05-30T15:20:15.425Z,55.20
2019-05-30T15:22:44.224Z,54.50
2019-05-30T15:25:16.454Z,54.90
2019-05-30T15:27:44.593Z,54.50
2019-05-30T15:30:14.812Z,53.90
2019-05-30T15:32:43.694Z,53.10
2019-05-30T15:35:13.169Z,51.80
2019-05-30T15:37:42.460Z,52.80
2019-05-30T15:40:13.048Z,52.60
2019-05-30T15:42:42.092Z,53.10
2019-05-30T15:45:12.008Z,53.30
2019-05-30T15:47:40.942Z,53.40
2019-05-30T15:50:13.592Z,52.80
2019-05-30T15:52:42.457Z,53.90
2019-05-30T15:55:13.200Z,54.10
2019-05-30T15:57:42.770Z,53.40
2019-05-30T16:00:16.091Z,54.30
2019-05-30T16:02:45.029Z,54.70
2019-05-30T16:05:14.712Z,54.10
2019-05-30T16:07:44.382Z,54.70
2019-05-30T16:10:13.372Z,54.30
2019-05-30T16:12:42.200Z,54.50
2019-05-30T16:15:11.779Z,54.40
2019-05-30T16:17:40.773Z,54.20
2019-05-30T16:20:11.749Z,55.00
2019-05-30T16:22:41.235Z,54.90
2019-05-30T16:25:13.836Z,55.00
2019-05-30T16:27:42.615Z,55.60
2019-05-30T16:30:18.358Z,55.80
2019-05-30T16:32:43.557Z,55.50
2019-05-30T16:35:12.444Z,55.70
2019-05-30T16:37:41.466Z,55.50
2019-05-30T16:40:10.627Z,56.30
2019-05-30T16:42:39.358Z,56.40
2019-05-30T16:45:10.027Z,56.30
2019-05-30T16:47:38.948Z,56.80
2019-05-30T16:50:08.023Z,57.10
2019-05-30T16:52:37.055Z,57.00
2019-05-30T16:55:06.486Z,57.10
2019-05-30T16:57:35.468Z,57.50
2019-05-30T17:00:06.042Z,56.60
2019-05-30T17:02:34.802Z,57.30
2019-05-30T17:05:04.668Z,57.50
2019-05-30T17:07:33.514Z,57.40
2019-05-30T17:10:02.372Z,56.70
2019-05-30T17:12:31.419Z,57.60
2019-05-30T17:15:00.756Z,57.60
2019-05-30T17:17:29.549Z,58.00
2019-05-30T17:19:58.334Z,57.90
2019-05-30T17:22:30.276Z,58.20
2019-05-30T17:24:58.063Z,57.70
2019-05-30T17:27:26.916Z,57.70
2019-05-30T17:29:55.915Z,57.80
2019-05-30T17:32:25.876Z,58.20
2019-05-30T17:34:54.723Z,57.90
2019-05-30T17:37:24.502Z,57.50
2019-05-30T17:39:53.472Z,57.00
2019-05-30T17:42:22.779Z,57.90
2019-05-30T17:44:51.604Z,57.70
2019-05-30T17:47:23.290Z,56.50
2019-05-30T17:49:52.281Z,57.80
2019-05-30T17:52:21.742Z,58.30
2019-05-30T17:54:50.654Z,57.70
2019-05-30T17:57:19.975Z,57.80
2019-05-30T17:59:48.823Z,57.70
2019-05-30T18:02:17.595Z,57.50
2019-05-30T18:04:46.317Z,58.00
2019-05-30T18:07:15.097Z,57.80
2019-05-30T18:09:43.841Z,58.30
2019-05-30T18:12:12.872Z,58.40
2019-05-30T18:14:42.047Z,58.90
2019-05-30T18:17:11.264Z,59.50
2019-05-30T18:19:42.644Z,58.80
2019-05-30T18:22:11.714Z,59.10
2019-05-30T18:24:40.901Z,59.50
2019-05-30T18:27:09.613Z,59.80
2019-05-30T18:29:38.332Z,59.80
2019-05-30T18:32:07.119Z,59.80
2019-05-30T18:34:35.960Z,59.80
2019-05-30T18:37:04.772Z,59.80
2019-05-30T18:39:33.545Z,60.00
2019-05-30T18:42:02.267Z,60.00
2019-05-30T18:44:32.821Z,60.00
2019-05-30T18:47:01.657Z,60.20
2019-05-30T18:49:34.744Z,60.30
2019-05-30T18:52:04.935Z,60.90
2019-05-30T18:54:33.752Z,61.20
2019-05-30T18:57:02.803Z,61.40
2019-05-30T18:59:31.532Z,61.60
2019-05-30T19:02:00.679Z,61.80
2019-05-30T19:04:29.603Z,62.10
2019-05-30T19:06:58.460Z,62.30
2019-05-30T19:09:27.166Z,62.90
2019-05-30T19:11:56.215Z,62.70
2019-05-30T19:14:29.400Z,62.60
2019-05-30T19:16:55.605Z,62.70
2019-05-30T19:19:25.870Z,62.90
2019-05-30T19:21:54.938Z,63.20
2019-05-30T19:24:23.655Z,63.30
2019-05-30T19:26:52.432Z,63.50
2019-05-30T19:29:21.137Z,63.50
2019-05-30T19:31:49.941Z,63.60
2019-05-30T19:34:21.595Z,64.20
2019-05-30T19:36:50.783Z,64.50
2019-05-30T19:39:19.788Z,64.80
2019-05-30T19:41:56.669Z,65.40
2019-05-30T19:44:20.037Z,65.00
2019-05-30T19:46:48.767Z,65.10
2019-05-30T19:49:17.730Z,64.80
2019-05-30T19:51:46.457Z,65.00
2019-05-30T19:54:15.232Z,64.80
2019-05-30T19:56:43.997Z,65.10
2019-05-30T19:59:12.860Z,65.70
2019-05-30T20:01:41.756Z,65.30
2019-05-30T20:04:10.734Z,65.40
2019-05-30T20:06:41.078Z,65.10
2019-05-30T20:09:09.804Z,65.10
2019-05-30T20:11:39.333Z,65.40
2019-05-30T20:14:08.554Z,65.40
2019-05-30T20:16:37.885Z,65.40
2019-05-30T20:19:06.980Z,65.30
2019-05-30T20:21:35.791Z,65.30
2019-05-30T20:24:04.867Z,65.40
2019-05-30T20:26:34.421Z,65.30
2019-05-30T20:29:03.788Z,65.30
2019-05-30T20:31:33.370Z,65.30
2019-05-30T20:34:02.513Z,65.50
2019-05-30T20:36:31.336Z,65.80
2019-05-30T20:39:00.107Z,65.70
2019-05-30T20:41:28.851Z,65.70
2019-05-30T20:43:57.863Z,65.80
2019-05-30T20:46:26.662Z,65.80
2019-05-30T20:48:55.504Z,65.90
2019-05-30T20:51:24.243Z,66.00
2019-05-30T20:53:54.739Z,66.20
2019-05-30T20:56:23.795Z,66.50
2019-05-30T20:58:52.564Z,66.50
2019-05-30T21:01:23.144Z,66.60
2019-05-30T21:03:52.244Z,66.70
2019-05-30T21:06:21.600Z,66.80
2019-05-30T21:08:51.449Z,66.90
2019-05-30T21:11:20.612Z,67.10
2019-05-30T21:13:52.811Z,67.80
2019-05-30T21:16:24.143Z,68.70
2019-05-30T21:18:53.159Z,68.00
2019-05-30T21:21:22.648Z,67.90
2019-05-30T21:23:51.401Z,68.00
2019-05-30T21:26:20.099Z,67.80
2019-05-30T21:28:48.855Z,68.00
2019-05-30T21:31:17.912Z,68.00
2019-05-30T21:33:48.259Z,67.80
2019-05-30T21:36:17.984Z,67.80
2019-05-30T21:38:46.763Z,67.80
2019-05-30T21:41:16.408Z,68.00
2019-05-30T21:43:45.389Z,68.50
2019-05-30T21:46:14.680Z,70.20
2019-05-30T21:48:43.477Z,70.40
2019-05-30T21:51:12.184Z,69.90
2019-05-30T21:53:41.471Z,70.90
2019-05-30T21:56:12.895Z,70.00
2019-05-30T21:58:42.155Z,71.70
2019-05-30T22:01:36.638Z,71.70
2019-05-30T22:04:07.102Z,71.60
2019-05-30T22:06:36.428Z,72.60
2019-05-30T22:09:09.565Z,72.80
2019-05-30T22:11:38.553Z,72.40
2019-05-30T22:14:07.749Z,72.00
2019-05-30T22:16:36.538Z,71.80
2019-05-30T22:19:05.729Z,71.80
2019-05-30T22:21:34.514Z,71.80
2019-05-30T22:24:03.714Z,71.90
2019-05-30T22:26:32.832Z,71.80
2019-05-30T22:29:01.859Z,72.00
2019-05-30T22:31:30.605Z,72.00
2019-05-30T22:33:59.379Z,72.30
2019-05-30T22:36:28.387Z,72.50
2019-05-30T22:38:57.184Z,72.30
2019-05-30T22:41:25.935Z,73.00
2019-05-30T22:43:55.463Z,75.00
2019-05-30T22:46:24.183Z,74.50
2019-05-30T22:48:53.087Z,75.10
2019-05-30T22:51:22.174Z,75.20
2019-05-30T22:53:51.188Z,75.70
2019-05-30T22:56:20.273Z,76.30
2019-05-30T22:58:50.211Z,75.80
2019-05-30T23:01:19.181Z,76.90
2019-05-30T23:03:49.062Z,76.40
2019-05-30T23:06:18.084Z,76.90
2019-05-30T23:08:48.420Z,77.60
2019-05-30T23:11:17.356Z,77.60
2019-05-30T23:13:46.215Z,77.30
2019-05-30T23:16:15.216Z,77.90
2019-05-30T23:18:43.947Z,77.20
2019-05-30T23:21:12.648Z,77.00
2019-05-30T23:23:42.400Z,77.90
2019-05-30T23:26:11.287Z,78.30
2019-05-30T23:28:40.013Z,77.30
2019-05-30T23:31:08.779Z,77.30
2019-05-30T23:33:37.510Z,78.20
2019-05-30T23:36:06.222Z,78.40
2019-05-30T23:38:34.947Z,78.30
2019-05-30T23:41:06.958Z,78.50
2019-05-30T23:43:35.732Z,78.20
2019-05-30T23:46:04.755Z,78.20
2019-05-30T23:48:33.478Z,77.80
2019-05-30T23:51:02.527Z,78.00
2019-05-30T23:53:31.234Z,78.00
2019-05-30T23:56:00.609Z,78.00
2019-05-30T23:58:29.661Z,78.00
